sensor_id;sensor_type;location;lat;lon;timestamp;P1;durP1;ratioP1;P2;durP2;ratioP2
63398;SDS011;49533;-34.520;150.798;2023-08-06T00:01:50;1.45;;;0.88;;
63398;SDS011;49533;-34.520;150.798;2023-08-06T00:04:17;1.00;;;0.80;;
63398;SDS011;49533;-34.520;150.798;2023-08-06T00:06:45;2.40;;;0.90;;
63398;SDS011;49533;-34.520;150.798;2023-08-06T00:09:12;3.45;;;1.00;;
63398;SDS011;49533;-34.520;150.798;2023-08-06T00:11:39;1.67;;;0.90;;
63398;SDS011;49533;-34.520;150.798;2023-08-06T00:14:06;2.25;;;1.15;;
63398;SDS011;49533;-34.520;150.798;2023-08-06T00:16:33;2.10;;;0.95;;
63398;SDS011;49533;-34.520;150.798;2023-08-06T00:19:01;3.70;;;1.15;;
63398;SDS011;49533;-34.520;150.798;2023-08-06T00:21:29;1.80;;;0.75;;
63398;SDS011;49533;-34.520;150.798;2023-08-06T00:23:56;1.33;;;1.00;;
63398;SDS011;49533;-34.520;150.798;2023-08-06T00:26:23;1.80;;;0.77;;
63398;SDS011;49533;-34.520;150.798;2023-08-06T00:28:50;2.13;;;0.88;;
63398;SDS011;49533;-34.520;150.798;2023-08-06T00:31:17;3.53;;;0.90;;
63398;SDS011;49533;-34.520;150.798;2023-08-06T00:33:44;1.63;;;0.70;;
63398;SDS011;49533;-34.520;150.798;2023-08-06T00:36:11;2.22;;;1.23;;
63398;SDS011;49533;-34.520;150.798;2023-08-06T00:38:38;2.20;;;0.98;;
63398;SDS011;49533;-34.520;150.798;2023-08-06T00:41:05;2.03;;;0.88;;
63398;SDS011;49533;-34.520;150.798;2023-08-06T00:43:33;1.38;;;0.70;;
63398;SDS011;49533;-34.520;150.798;2023-08-06T00:46:00;4.30;;;0.90;;
63398;SDS011;49533;-34.520;150.798;2023-08-06T00:48:27;2.38;;;0.88;;
63398;SDS011;49533;-34.520;150.798;2023-08-06T00:50:54;3.50;;;1.30;;
63398;SDS011;49533;-34.520;150.798;2023-08-06T00:53:22;2.30;;;1.20;;
63398;SDS011;49533;-34.520;150.798;2023-08-06T00:55:49;2.08;;;1.08;;
63398;SDS011;49533;-34.520;150.798;2023-08-06T00:58:17;3.15;;;1.17;;
63398;SDS011;49533;-34.520;150.798;2023-08-06T01:00:44;1.70;;;0.90;;
63398;SDS011;49533;-34.520;150.798;2023-08-06T01:03:11;2.53;;;1.00;;
63398;SDS011;49533;-34.520;150.798;2023-08-06T01:05:38;3.42;;;1.90;;
63398;SDS011;49533;-34.520;150.798;2023-08-06T01:08:15;4.75;;;1.90;;
63398;SDS011;49533;-34.520;150.798;2023-08-06T01:14:02;2.38;;;1.70;;
63398;SDS011;49533;-34.520;150.798;2023-08-06T01:16:40;2.85;;;1.80;;
63398;SDS011;49533;-34.520;150.798;2023-08-06T01:19:17;3.03;;;1.67;;
63398;SDS011;49533;-34.520;150.798;2023-08-06T01:21:45;3.30;;;2.00;;
63398;SDS011;49533;-34.520;150.798;2023-08-06T01:24:12;2.50;;;1.55;;
63398;SDS011;49533;-34.520;150.798;2023-08-06T01:26:42;2.65;;;2.03;;
63398;SDS011;49533;-34.520;150.798;2023-08-06T01:29:23;3.92;;;2.35;;
63398;SDS011;49533;-34.520;150.798;2023-08-06T01:31:56;3.40;;;2.50;;
63398;SDS011;49533;-34.520;150.798;2023-08-06T01:34:25;3.20;;;2.35;;
63398;SDS011;49533;-34.520;150.798;2023-08-06T01:36:57;3.13;;;2.60;;
63398;SDS011;49533;-34.520;150.798;2023-08-06T01:39:25;3.22;;;2.50;;
63398;SDS011;49533;-34.520;150.798;2023-08-06T01:41:52;2.78;;;2.50;;
63398;SDS011;49533;-34.520;150.798;2023-08-06T01:44:20;4.10;;;2.75;;
63398;SDS011;49533;-34.520;150.798;2023-08-06T01:46:47;3.55;;;2.72;;
63398;SDS011;49533;-34.520;150.798;2023-08-06T01:49:14;3.65;;;2.40;;
63398;SDS011;49533;-34.520;150.798;2023-08-06T01:51:41;2.90;;;2.50;;
63398;SDS011;49533;-34.520;150.798;2023-08-06T01:54:08;3.42;;;2.25;;
63398;SDS011;49533;-34.520;150.798;2023-08-06T01:56:35;4.50;;;2.42;;
63398;SDS011;49533;-34.520;150.798;2023-08-06T01:59:02;3.95;;;2.38;;
63398;SDS011;49533;-34.520;150.798;2023-08-06T02:01:29;3.35;;;2.38;;
63398;SDS011;49533;-34.520;150.798;2023-08-06T02:03:56;2.95;;;2.50;;
63398;SDS011;49533;-34.520;150.798;2023-08-06T02:06:23;2.20;;;2.00;;
63398;SDS011;49533;-34.520;150.798;2023-08-06T02:08:50;3.17;;;2.42;;
63398;SDS011;49533;-34.520;150.798;2023-08-06T02:11:17;3.78;;;2.15;;
63398;SDS011;49533;-34.520;150.798;2023-08-06T02:13:45;2.85;;;2.13;;
63398;SDS011;49533;-34.520;150.798;2023-08-06T02:16:12;4.22;;;2.25;;
63398;SDS011;49533;-34.520;150.798;2023-08-06T02:18:39;1.95;;;1.73;;
63398;SDS011;49533;-34.520;150.798;2023-08-06T02:21:06;3.25;;;1.98;;
63398;SDS011;49533;-34.520;150.798;2023-08-06T02:23:34;2.40;;;2.17;;
63398;SDS011;49533;-34.520;150.798;2023-08-06T02:26:02;3.22;;;1.92;;
63398;SDS011;49533;-34.520;150.798;2023-08-06T02:28:31;2.03;;;1.77;;
63398;SDS011;49533;-34.520;150.798;2023-08-06T02:30:58;1.83;;;1.70;;
63398;SDS011;49533;-34.520;150.798;2023-08-06T02:33:25;2.35;;;1.60;;
63398;SDS011;49533;-34.520;150.798;2023-08-06T02:35:58;2.47;;;1.83;;
63398;SDS011;49533;-34.520;150.798;2023-08-06T02:38:27;2.58;;;1.52;;
63398;SDS011;49533;-34.520;150.798;2023-08-06T02:40:54;4.70;;;2.22;;
63398;SDS011;49533;-34.520;150.798;2023-08-06T02:43:21;2.50;;;1.40;;
63398;SDS011;49533;-34.520;150.798;2023-08-06T02:45:48;3.08;;;1.40;;
63398;SDS011;49533;-34.520;150.798;2023-08-06T02:48:15;2.45;;;1.80;;
63398;SDS011;49533;-34.520;150.798;2023-08-06T02:50:43;3.22;;;1.80;;
63398;SDS011;49533;-34.520;150.798;2023-08-06T02:53:10;2.13;;;1.45;;
63398;SDS011;49533;-34.520;150.798;2023-08-06T02:55:38;2.40;;;1.42;;
63398;SDS011;49533;-34.520;150.798;2023-08-06T02:58:12;1.95;;;1.50;;
63398;SDS011;49533;-34.520;150.798;2023-08-06T03:00:39;2.08;;;1.42;;
63398;SDS011;49533;-34.520;150.798;2023-08-06T03:03:06;1.63;;;1.35;;
63398;SDS011;49533;-34.520;150.798;2023-08-06T03:05:33;1.67;;;1.20;;
63398;SDS011;49533;-34.520;150.798;2023-08-06T03:08:00;3.25;;;1.60;;
63398;SDS011;49533;-34.520;150.798;2023-08-06T03:10:27;1.80;;;1.17;;
63398;SDS011;49533;-34.520;150.798;2023-08-06T03:12:55;2.67;;;1.25;;
63398;SDS011;49533;-34.520;150.798;2023-08-06T03:15:22;3.20;;;1.30;;
63398;SDS011;49533;-34.520;150.798;2023-08-06T03:17:49;1.35;;;1.10;;
63398;SDS011;49533;-34.520;150.798;2023-08-06T03:20:16;2.13;;;1.10;;
63398;SDS011;49533;-34.520;150.798;2023-08-06T03:22:43;1.20;;;1.10;;
63398;SDS011;49533;-34.520;150.798;2023-08-06T03:25:10;1.38;;;1.20;;
63398;SDS011;49533;-34.520;150.798;2023-08-06T03:27:37;1.60;;;1.30;;
63398;SDS011;49533;-34.520;150.798;2023-08-06T03:30:04;2.42;;;1.50;;
63398;SDS011;49533;-34.520;150.798;2023-08-06T03:32:32;3.20;;;1.85;;
63398;SDS011;49533;-34.520;150.798;2023-08-06T03:34:59;1.83;;;1.30;;
63398;SDS011;49533;-34.520;150.798;2023-08-06T03:37:26;1.58;;;1.10;;
63398;SDS011;49533;-34.520;150.798;2023-08-06T03:39:53;4.05;;;1.60;;
63398;SDS011;49533;-34.520;150.798;2023-08-06T03:42:20;1.60;;;1.40;;
63398;SDS011;49533;-34.520;150.798;2023-08-06T03:44:50;1.10;;;1.00;;
63398;SDS011;49533;-34.520;150.798;2023-08-06T03:47:17;3.72;;;1.60;;
63398;SDS011;49533;-34.520;150.798;2023-08-06T03:49:44;3.80;;;1.30;;
63398;SDS011;49533;-34.520;150.798;2023-08-06T03:52:11;1.25;;;1.15;;
63398;SDS011;49533;-34.520;150.798;2023-08-06T03:54:38;1.77;;;1.15;;
63398;SDS011;49533;-34.520;150.798;2023-08-06T03:57:06;3.70;;;1.60;;
63398;SDS011;49533;-34.520;150.798;2023-08-06T03:59:33;3.55;;;1.40;;
63398;SDS011;49533;-34.520;150.798;2023-08-06T04:02:00;1.27;;;1.08;;
63398;SDS011;49533;-34.520;150.798;2023-08-06T04:04:28;2.20;;;1.40;;
63398;SDS011;49533;-34.520;150.798;2023-08-06T04:06:55;2.33;;;1.40;;
63398;SDS011;49533;-34.520;150.798;2023-08-06T04:09:22;1.55;;;1.17;;
63398;SDS011;49533;-34.520;150.798;2023-08-06T04:11:49;1.85;;;1.75;;
63398;SDS011;49533;-34.520;150.798;2023-08-06T04:14:16;2.53;;;1.20;;
63398;SDS011;49533;-34.520;150.798;2023-08-06T04:16:43;1.48;;;1.15;;
63398;SDS011;49533;-34.520;150.798;2023-08-06T04:19:10;2.45;;;0.98;;
63398;SDS011;49533;-34.520;150.798;2023-08-06T04:21:37;2.75;;;0.77;;
63398;SDS011;49533;-34.520;150.798;2023-08-06T04:24:04;1.45;;;1.15;;
63398;SDS011;49533;-34.520;150.798;2023-08-06T04:26:31;2.00;;;1.60;;
63398;SDS011;49533;-34.520;150.798;2023-08-06T04:28:58;1.45;;;1.23;;
63398;SDS011;49533;-34.520;150.798;2023-08-06T04:31:25;1.20;;;1.02;;
63398;SDS011;49533;-34.520;150.798;2023-08-06T04:33:53;6.53;;;1.55;;
63398;SDS011;49533;-34.520;150.798;2023-08-06T04:36:20;2.38;;;0.95;;
63398;SDS011;49533;-34.520;150.798;2023-08-06T04:38:47;1.20;;;1.10;;
63398;SDS011;49533;-34.520;150.798;2023-08-06T04:41:14;2.45;;;0.93;;
63398;SDS011;49533;-34.520;150.798;2023-08-06T04:43:41;2.13;;;1.08;;
63398;SDS011;49533;-34.520;150.798;2023-08-06T04:46:08;3.22;;;1.25;;
63398;SDS011;49533;-34.520;150.798;2023-08-06T04:48:35;1.67;;;1.40;;
63398;SDS011;49533;-34.520;150.798;2023-08-06T04:51:02;2.40;;;1.30;;
63398;SDS011;49533;-34.520;150.798;2023-08-06T04:53:29;1.60;;;1.20;;
63398;SDS011;49533;-34.520;150.798;2023-08-06T04:55:56;1.45;;;1.00;;
63398;SDS011;49533;-34.520;150.798;2023-08-06T04:58:23;2.33;;;1.17;;
63398;SDS011;49533;-34.520;150.798;2023-08-06T05:00:50;1.80;;;1.13;;
63398;SDS011;49533;-34.520;150.798;2023-08-06T05:03:19;2.13;;;1.10;;
63398;SDS011;49533;-34.520;150.798;2023-08-06T05:05:46;1.05;;;0.65;;
63398;SDS011;49533;-34.520;150.798;2023-08-06T05:08:14;2.70;;;1.25;;
63398;SDS011;49533;-34.520;150.798;2023-08-06T05:10:47;1.83;;;1.02;;
63398;SDS011;49533;-34.520;150.798;2023-08-06T05:13:14;1.15;;;1.10;;
63398;SDS011;49533;-34.520;150.798;2023-08-06T05:15:41;1.05;;;0.80;;
63398;SDS011;49533;-34.520;150.798;2023-08-06T05:18:10;1.00;;;0.90;;
63398;SDS011;49533;-34.520;150.798;2023-08-06T05:20:39;3.13;;;1.17;;
63398;SDS011;49533;-34.520;150.798;2023-08-06T05:23:07;1.30;;;1.20;;
63398;SDS011;49533;-34.520;150.798;2023-08-06T05:25:34;2.90;;;1.20;;
63398;SDS011;49533;-34.520;150.798;2023-08-06T05:28:02;0.90;;;0.90;;
63398;SDS011;49533;-34.520;150.798;2023-08-06T05:30:29;2.67;;;1.38;;
63398;SDS011;49533;-34.520;150.798;2023-08-06T05:32:56;1.08;;;1.05;;
63398;SDS011;49533;-34.520;150.798;2023-08-06T05:35:24;1.65;;;1.10;;
63398;SDS011;49533;-34.520;150.798;2023-08-06T05:37:52;1.67;;;1.00;;
63398;SDS011;49533;-34.520;150.798;2023-08-06T05:40:19;1.30;;;1.20;;
63398;SDS011;49533;-34.520;150.798;2023-08-06T05:42:46;0.80;;;0.80;;
63398;SDS011;49533;-34.520;150.798;2023-08-06T05:45:13;1.60;;;1.02;;
63398;SDS011;49533;-34.520;150.798;2023-08-06T05:47:41;1.10;;;1.00;;
63398;SDS011;49533;-34.520;150.798;2023-08-06T05:50:08;1.55;;;1.17;;
63398;SDS011;49533;-34.520;150.798;2023-08-06T05:52:35;1.25;;;0.80;;
63398;SDS011;49533;-34.520;150.798;2023-08-06T05:55:03;0.98;;;0.80;;
63398;SDS011;49533;-34.520;150.798;2023-08-06T05:57:30;1.17;;;1.08;;
63398;SDS011;49533;-34.520;150.798;2023-08-06T05:59:57;1.45;;;0.90;;
63398;SDS011;49533;-34.520;150.798;2023-08-06T06:02:24;1.60;;;0.90;;
63398;SDS011;49533;-34.520;150.798;2023-08-06T06:04:51;1.50;;;1.15;;
63398;SDS011;49533;-34.520;150.798;2023-08-06T06:07:19;1.00;;;1.00;;
63398;SDS011;49533;-34.520;150.798;2023-08-06T06:09:46;1.60;;;1.08;;
63398;SDS011;49533;-34.520;150.798;2023-08-06T06:12:13;0.93;;;0.90;;
63398;SDS011;49533;-34.520;150.798;2023-08-06T06:14:40;1.58;;;0.93;;
63398;SDS011;49533;-34.520;150.798;2023-08-06T06:17:07;2.35;;;0.93;;
63398;SDS011;49533;-34.520;150.798;2023-08-06T06:19:34;1.00;;;0.90;;
63398;SDS011;49533;-34.520;150.798;2023-08-06T06:22:01;1.48;;;0.60;;
63398;SDS011;49533;-34.520;150.798;2023-08-06T06:24:29;2.13;;;1.08;;
63398;SDS011;49533;-34.520;150.798;2023-08-06T06:26:55;1.45;;;0.95;;
63398;SDS011;49533;-34.520;150.798;2023-08-06T06:29:23;1.08;;;0.60;;
63398;SDS011;49533;-34.520;150.798;2023-08-06T06:31:50;1.73;;;0.90;;
63398;SDS011;49533;-34.520;150.798;2023-08-06T06:34:17;0.80;;;0.80;;
63398;SDS011;49533;-34.520;150.798;2023-08-06T06:36:44;1.13;;;0.98;;
63398;SDS011;49533;-34.520;150.798;2023-08-06T06:39:11;2.17;;;0.98;;
63398;SDS011;49533;-34.520;150.798;2023-08-06T06:41:39;0.90;;;0.80;;
63398;SDS011;49533;-34.520;150.798;2023-08-06T06:44:06;1.77;;;0.95;;
63398;SDS011;49533;-34.520;150.798;2023-08-06T06:46:33;1.27;;;0.68;;
63398;SDS011;49533;-34.520;150.798;2023-08-06T06:49:00;0.93;;;0.93;;
63398;SDS011;49533;-34.520;150.798;2023-08-06T06:51:27;1.27;;;0.90;;
63398;SDS011;49533;-34.520;150.798;2023-08-06T06:53:54;2.05;;;1.23;;
63398;SDS011;49533;-34.520;150.798;2023-08-06T06:56:21;1.58;;;1.30;;
63398;SDS011;49533;-34.520;150.798;2023-08-06T06:58:48;1.40;;;1.30;;
63398;SDS011;49533;-34.520;150.798;2023-08-06T07:01:15;1.60;;;1.50;;
63398;SDS011;49533;-34.520;150.798;2023-08-06T07:03:42;1.85;;;1.48;;
63398;SDS011;49533;-34.520;150.798;2023-08-06T07:06:09;2.17;;;1.20;;
63398;SDS011;49533;-34.520;150.798;2023-08-06T07:08:38;1.33;;;0.95;;
63398;SDS011;49533;-34.520;150.798;2023-08-06T07:11:06;1.52;;;1.40;;
63398;SDS011;49533;-34.520;150.798;2023-08-06T07:13:34;2.20;;;1.13;;
63398;SDS011;49533;-34.520;150.798;2023-08-06T07:16:01;0.88;;;0.88;;
63398;SDS011;49533;-34.520;150.798;2023-08-06T07:18:28;1.13;;;1.02;;
63398;SDS011;49533;-34.520;150.798;2023-08-06T07:20:56;1.73;;;1.00;;
63398;SDS011;49533;-34.520;150.798;2023-08-06T07:23:25;2.13;;;1.20;;
63398;SDS011;49533;-34.520;150.798;2023-08-06T07:25:52;1.77;;;1.33;;
63398;SDS011;49533;-34.520;150.798;2023-08-06T07:28:19;2.00;;;0.90;;
63398;SDS011;49533;-34.520;150.798;2023-08-06T07:30:46;1.45;;;1.00;;
63398;SDS011;49533;-34.520;150.798;2023-08-06T07:33:13;1.02;;;1.00;;
63398;SDS011;49533;-34.520;150.798;2023-08-06T07:35:40;1.50;;;0.93;;
63398;SDS011;49533;-34.520;150.798;2023-08-06T07:38:08;2.50;;;1.15;;
63398;SDS011;49533;-34.520;150.798;2023-08-06T07:40:36;1.30;;;1.00;;
63398;SDS011;49533;-34.520;150.798;2023-08-06T07:43:04;1.27;;;1.17;;
63398;SDS011;49533;-34.520;150.798;2023-08-06T07:45:34;1.58;;;0.90;;
63398;SDS011;49533;-34.520;150.798;2023-08-06T07:48:02;1.15;;;1.05;;
63398;SDS011;49533;-34.520;150.798;2023-08-06T07:50:30;1.15;;;1.08;;
63398;SDS011;49533;-34.520;150.798;2023-08-06T07:52:57;1.60;;;1.00;;
63398;SDS011;49533;-34.520;150.798;2023-08-06T07:55:25;1.42;;;0.90;;
63398;SDS011;49533;-34.520;150.798;2023-08-06T07:57:52;1.70;;;1.02;;
63398;SDS011;49533;-34.520;150.798;2023-08-06T08:00:19;1.13;;;0.90;;
63398;SDS011;49533;-34.520;150.798;2023-08-06T08:02:46;0.82;;;0.82;;
63398;SDS011;49533;-34.520;150.798;2023-08-06T08:05:14;1.67;;;1.02;;
63398;SDS011;49533;-34.520;150.798;2023-08-06T08:07:41;2.22;;;1.10;;
63398;SDS011;49533;-34.520;150.798;2023-08-06T08:10:09;1.20;;;1.10;;
63398;SDS011;49533;-34.520;150.798;2023-08-06T08:12:36;1.30;;;1.00;;
63398;SDS011;49533;-34.520;150.798;2023-08-06T08:15:04;1.10;;;0.90;;
63398;SDS011;49533;-34.520;150.798;2023-08-06T08:17:32;1.38;;;0.90;;
63398;SDS011;49533;-34.520;150.798;2023-08-06T08:20:00;0.95;;;0.90;;
63398;SDS011;49533;-34.520;150.798;2023-08-06T08:22:27;1.00;;;0.90;;
63398;SDS011;49533;-34.520;150.798;2023-08-06T08:24:54;1.20;;;1.10;;
63398;SDS011;49533;-34.520;150.798;2023-08-06T08:27:21;1.65;;;1.55;;
63398;SDS011;49533;-34.520;150.798;2023-08-06T08:29:48;2.35;;;2.15;;
63398;SDS011;49533;-34.520;150.798;2023-08-06T08:32:15;2.83;;;2.58;;
63398;SDS011;49533;-34.520;150.798;2023-08-06T08:34:42;1.92;;;1.70;;
63398;SDS011;49533;-34.520;150.798;2023-08-06T08:37:10;3.38;;;1.67;;
63398;SDS011;49533;-34.520;150.798;2023-08-06T08:39:37;1.70;;;1.60;;
63398;SDS011;49533;-34.520;150.798;2023-08-06T08:42:04;1.95;;;1.50;;
63398;SDS011;49533;-34.520;150.798;2023-08-06T08:44:32;1.63;;;1.50;;
63398;SDS011;49533;-34.520;150.798;2023-08-06T08:47:02;1.98;;;1.88;;
63398;SDS011;49533;-34.520;150.798;2023-08-06T08:49:30;1.73;;;1.63;;
63398;SDS011;49533;-34.520;150.798;2023-08-06T08:51:58;1.70;;;1.60;;
63398;SDS011;49533;-34.520;150.798;2023-08-06T08:54:27;1.85;;;1.20;;
63398;SDS011;49533;-34.520;150.798;2023-08-06T08:56:57;1.58;;;1.48;;
63398;SDS011;49533;-34.520;150.798;2023-08-06T08:59:24;1.80;;;1.55;;
63398;SDS011;49533;-34.520;150.798;2023-08-06T09:01:52;1.73;;;1.50;;
63398;SDS011;49533;-34.520;150.798;2023-08-06T09:04:20;1.50;;;1.40;;
63398;SDS011;49533;-34.520;150.798;2023-08-06T09:06:50;2.80;;;1.42;;
63398;SDS011;49533;-34.520;150.798;2023-08-06T09:09:25;1.25;;;1.08;;
63398;SDS011;49533;-34.520;150.798;2023-08-06T09:11:59;1.52;;;1.40;;
63398;SDS011;49533;-34.520;150.798;2023-08-06T09:14:28;2.50;;;1.40;;
63398;SDS011;49533;-34.520;150.798;2023-08-06T09:16:55;1.10;;;1.10;;
63398;SDS011;49533;-34.520;150.798;2023-08-06T09:19:23;1.05;;;0.98;;
63398;SDS011;49533;-34.520;150.798;2023-08-06T09:21:51;1.17;;;1.08;;
63398;SDS011;49533;-34.520;150.798;2023-08-06T09:24:19;1.50;;;1.38;;
63398;SDS011;49533;-34.520;150.798;2023-08-06T09:26:47;1.05;;;0.95;;
63398;SDS011;49533;-34.520;150.798;2023-08-06T09:29:14;1.10;;;1.10;;
63398;SDS011;49533;-34.520;150.798;2023-08-06T09:31:42;2.92;;;1.20;;
63398;SDS011;49533;-34.520;150.798;2023-08-06T09:34:14;1.45;;;1.35;;
63398;SDS011;49533;-34.520;150.798;2023-08-06T09:36:46;2.03;;;1.90;;
63398;SDS011;49533;-34.520;150.798;2023-08-06T09:39:15;2.75;;;2.55;;
63398;SDS011;49533;-34.520;150.798;2023-08-06T09:41:43;2.33;;;2.13;;
63398;SDS011;49533;-34.520;150.798;2023-08-06T09:44:16;2.25;;;2.05;;
63398;SDS011;49533;-34.520;150.798;2023-08-06T09:46:48;1.38;;;1.27;;
63398;SDS011;49533;-34.520;150.798;2023-08-06T09:49:17;1.80;;;1.70;;
63398;SDS011;49533;-34.520;150.798;2023-08-06T09:51:46;1.98;;;1.75;;
63398;SDS011;49533;-34.520;150.798;2023-08-06T09:54:19;1.77;;;1.67;;
63398;SDS011;49533;-34.520;150.798;2023-08-06T09:56:46;1.73;;;1.63;;
63398;SDS011;49533;-34.520;150.798;2023-08-06T09:59:14;1.75;;;1.50;;
63398;SDS011;49533;-34.520;150.798;2023-08-06T10:01:41;1.58;;;1.48;;
63398;SDS011;49533;-34.520;150.798;2023-08-06T10:04:09;2.50;;;1.42;;
63398;SDS011;49533;-34.520;150.798;2023-08-06T10:06:37;1.73;;;1.40;;
63398;SDS011;49533;-34.520;150.798;2023-08-06T10:09:04;2.05;;;1.73;;
63398;SDS011;49533;-34.520;150.798;2023-08-06T10:11:32;1.52;;;1.40;;
63398;SDS011;49533;-34.520;150.798;2023-08-06T10:14:04;1.38;;;1.25;;
63398;SDS011;49533;-34.520;150.798;2023-08-06T10:16:40;1.98;;;1.58;;
63398;SDS011;49533;-34.520;150.798;2023-08-06T10:19:09;1.80;;;1.50;;
63398;SDS011;49533;-34.520;150.798;2023-08-06T10:21:38;1.75;;;1.15;;
63398;SDS011;49533;-34.520;150.798;2023-08-06T10:24:07;1.85;;;1.60;;
63398;SDS011;49533;-34.520;150.798;2023-08-06T10:26:36;1.65;;;1.55;;
63398;SDS011;49533;-34.520;150.798;2023-08-06T10:31:54;1.30;;;1.20;;
63398;SDS011;49533;-34.520;150.798;2023-08-06T10:34:25;2.47;;;1.33;;
63398;SDS011;49533;-34.520;150.798;2023-08-06T10:39:49;0.93;;;0.93;;
63398;SDS011;49533;-34.520;150.798;2023-08-06T10:42:21;2.20;;;1.48;;
63398;SDS011;49533;-34.520;150.798;2023-08-06T10:47:42;1.30;;;1.27;;
63398;SDS011;49533;-34.520;150.798;2023-08-06T10:50:11;2.20;;;1.70;;
63398;SDS011;49533;-34.520;150.798;2023-08-06T10:52:44;4.45;;;1.83;;
63398;SDS011;49533;-34.520;150.798;2023-08-06T10:55:12;1.83;;;1.33;;
63398;SDS011;49533;-34.520;150.798;2023-08-06T10:57:40;1.92;;;1.80;;
63398;SDS011;49533;-34.520;150.798;2023-08-06T11:00:07;1.42;;;1.33;;
63398;SDS011;49533;-34.520;150.798;2023-08-06T11:02:37;1.70;;;1.30;;
63398;SDS011;49533;-34.520;150.798;2023-08-06T11:05:06;1.60;;;1.50;;
63398;SDS011;49533;-34.520;150.798;2023-08-06T11:07:34;1.50;;;1.40;;
63398;SDS011;49533;-34.520;150.798;2023-08-06T11:10:03;1.73;;;1.48;;
63398;SDS011;49533;-34.520;150.798;2023-08-06T11:12:32;1.88;;;1.75;;
63398;SDS011;49533;-34.520;150.798;2023-08-06T11:14:59;1.52;;;1.42;;
63398;SDS011;49533;-34.520;150.798;2023-08-06T11:17:27;1.45;;;1.30;;
63398;SDS011;49533;-34.520;150.798;2023-08-06T11:19:55;1.73;;;1.30;;
63398;SDS011;49533;-34.520;150.798;2023-08-06T11:22:25;1.95;;;1.48;;
63398;SDS011;49533;-34.520;150.798;2023-08-06T11:24:53;1.58;;;1.48;;
63398;SDS011;49533;-34.520;150.798;2023-08-06T11:27:21;1.30;;;1.20;;
63398;SDS011;49533;-34.520;150.798;2023-08-06T11:29:48;1.38;;;1.27;;
63398;SDS011;49533;-34.520;150.798;2023-08-06T11:32:15;1.65;;;1.23;;
63398;SDS011;49533;-34.520;150.798;2023-08-06T11:34:42;2.35;;;1.45;;
63398;SDS011;49533;-34.520;150.798;2023-08-06T11:37:10;1.40;;;1.30;;
63398;SDS011;49533;-34.520;150.798;2023-08-06T11:39:37;1.25;;;1.15;;
63398;SDS011;49533;-34.520;150.798;2023-08-06T11:42:05;1.80;;;1.15;;
63398;SDS011;49533;-34.520;150.798;2023-08-06T11:44:35;1.00;;;0.90;;
63398;SDS011;49533;-34.520;150.798;2023-08-06T11:47:03;1.20;;;1.10;;
63398;SDS011;49533;-34.520;150.798;2023-08-06T11:49:40;1.45;;;1.10;;
63398;SDS011;49533;-34.520;150.798;2023-08-06T11:52:14;1.85;;;0.95;;
63398;SDS011;49533;-34.520;150.798;2023-08-06T11:54:47;1.20;;;1.10;;
63398;SDS011;49533;-34.520;150.798;2023-08-06T11:57:33;1.30;;;1.20;;
63398;SDS011;49533;-34.520;150.798;2023-08-06T12:00:02;1.20;;;1.10;;
63398;SDS011;49533;-34.520;150.798;2023-08-06T12:02:32;1.45;;;1.17;;
63398;SDS011;49533;-34.520;150.798;2023-08-06T12:05:10;1.20;;;1.10;;
63398;SDS011;49533;-34.520;150.798;2023-08-06T12:07:43;1.98;;;0.80;;
63398;SDS011;49533;-34.520;150.798;2023-08-06T12:10:12;0.80;;;0.80;;
63398;SDS011;49533;-34.520;150.798;2023-08-06T12:12:40;1.00;;;0.90;;
63398;SDS011;49533;-34.520;150.798;2023-08-06T12:15:08;0.90;;;0.88;;
63398;SDS011;49533;-34.520;150.798;2023-08-06T12:17:36;1.30;;;1.00;;
63398;SDS011;49533;-34.520;150.798;2023-08-06T12:20:04;1.35;;;1.00;;
63398;SDS011;49533;-34.520;150.798;2023-08-06T12:22:32;2.03;;;1.10;;
63398;SDS011;49533;-34.520;150.798;2023-08-06T12:25:02;1.25;;;0.90;;
63398;SDS011;49533;-34.520;150.798;2023-08-06T12:27:35;1.30;;;0.98;;
63398;SDS011;49533;-34.520;150.798;2023-08-06T12:30:02;0.73;;;0.70;;
63398;SDS011;49533;-34.520;150.798;2023-08-06T12:32:30;0.80;;;0.80;;
63398;SDS011;49533;-34.520;150.798;2023-08-06T12:34:57;1.63;;;1.10;;
63398;SDS011;49533;-34.520;150.798;2023-08-06T12:37:24;1.85;;;1.00;;
63398;SDS011;49533;-34.520;150.798;2023-08-06T12:39:51;0.93;;;0.93;;
63398;SDS011;49533;-34.520;150.798;2023-08-06T12:42:19;2.42;;;1.17;;
63398;SDS011;49533;-34.520;150.798;2023-08-06T12:44:47;1.58;;;1.02;;
63398;SDS011;49533;-34.520;150.798;2023-08-06T12:47:16;1.60;;;0.82;;
63398;SDS011;49533;-34.520;150.798;2023-08-06T12:49:43;0.77;;;0.73;;
63398;SDS011;49533;-34.520;150.798;2023-08-06T12:52:11;1.48;;;0.77;;
63398;SDS011;49533;-34.520;150.798;2023-08-06T12:54:40;0.70;;;0.63;;
63398;SDS011;49533;-34.520;150.798;2023-08-06T12:57:08;1.65;;;1.13;;
63398;SDS011;49533;-34.520;150.798;2023-08-06T12:59:35;0.82;;;0.80;;
63398;SDS011;49533;-34.520;150.798;2023-08-06T13:02:03;0.82;;;0.80;;
63398;SDS011;49533;-34.520;150.798;2023-08-06T13:04:30;1.88;;;1.00;;
63398;SDS011;49533;-34.520;150.798;2023-08-06T13:06:58;1.30;;;1.15;;
63398;SDS011;49533;-34.520;150.798;2023-08-06T13:09:25;1.30;;;0.75;;
63398;SDS011;49533;-34.520;150.798;2023-08-06T13:11:53;1.73;;;1.02;;
63398;SDS011;49533;-34.520;150.798;2023-08-06T13:14:20;1.25;;;0.98;;
63398;SDS011;49533;-34.520;150.798;2023-08-06T13:16:47;0.70;;;0.70;;
63398;SDS011;49533;-34.520;150.798;2023-08-06T13:19:14;0.68;;;0.68;;
63398;SDS011;49533;-34.520;150.798;2023-08-06T13:24:30;0.60;;;0.50;;
63398;SDS011;49533;-34.520;150.798;2023-08-06T13:26:57;1.10;;;1.02;;
63398;SDS011;49533;-34.520;150.798;2023-08-06T13:29:25;1.52;;;0.75;;
63398;SDS011;49533;-34.520;150.798;2023-08-06T13:31:53;1.55;;;0.65;;
63398;SDS011;49533;-34.520;150.798;2023-08-06T13:34:20;1.00;;;0.60;;
63398;SDS011;49533;-34.520;150.798;2023-08-06T13:36:47;1.95;;;1.20;;
63398;SDS011;49533;-34.520;150.798;2023-08-06T13:39:15;0.77;;;0.40;;
63398;SDS011;49533;-34.520;150.798;2023-08-06T13:41:44;0.60;;;0.50;;
63398;SDS011;49533;-34.520;150.798;2023-08-06T13:44:11;1.23;;;0.82;;
63398;SDS011;49533;-34.520;150.798;2023-08-06T13:46:40;1.02;;;0.93;;
63398;SDS011;49533;-34.520;150.798;2023-08-06T13:49:07;1.13;;;0.75;;
63398;SDS011;49533;-34.520;150.798;2023-08-06T13:51:34;1.30;;;0.90;;
63398;SDS011;49533;-34.520;150.798;2023-08-06T13:54:01;0.40;;;0.40;;
63398;SDS011;49533;-34.520;150.798;2023-08-06T13:56:29;0.47;;;0.47;;
63398;SDS011;49533;-34.520;150.798;2023-08-06T13:58:56;0.95;;;0.50;;
63398;SDS011;49533;-34.520;150.798;2023-08-06T14:01:23;0.77;;;0.57;;
63398;SDS011;49533;-34.520;150.798;2023-08-06T14:03:51;1.52;;;0.75;;
63398;SDS011;49533;-34.520;150.798;2023-08-06T14:06:19;0.80;;;0.80;;
63398;SDS011;49533;-34.520;150.798;2023-08-06T14:08:46;0.65;;;0.65;;
63398;SDS011;49533;-34.520;150.798;2023-08-06T14:11:13;0.88;;;0.85;;
63398;SDS011;49533;-34.520;150.798;2023-08-06T14:13:40;1.20;;;0.73;;
63398;SDS011;49533;-34.520;150.798;2023-08-06T14:16:07;1.10;;;0.80;;
63398;SDS011;49533;-34.520;150.798;2023-08-06T14:18:34;0.80;;;0.80;;
63398;SDS011;49533;-34.520;150.798;2023-08-06T14:21:03;1.35;;;0.82;;
63398;SDS011;49533;-34.520;150.798;2023-08-06T14:23:30;1.05;;;0.70;;
63398;SDS011;49533;-34.520;150.798;2023-08-06T14:25:57;1.30;;;0.98;;
63398;SDS011;49533;-34.520;150.798;2023-08-06T14:28:24;1.00;;;0.63;;